sensor_id;sensor_type;location;lat;lon;timestamp;pressure;altitude;pressure_sealevel;temperature;humidity
74437;BME280;62868;52.360;30.424;2023-03-19T00:04:04;1036.6;;;1.3;42.2
74437;BME280;62868;52.360;30.424;2023-03-19T00:09:02;1036.6;;;1.3;42.3
74437;BME280;62868;52.360;30.424;2023-03-19T00:13:32;1036.6;;;1.3;42.4
74437;BME280;62868;52.360;30.424;2023-03-19T00:19:08;1036.6;;;1.2;42.6
74437;BME280;62868;52.360;30.424;2023-03-19T00:23:50;1036.5;;;1.2;42.8
74437;BME280;62868;52.360;30.424;2023-03-19T00:28:38;1036.5;;;1.1;42.9
74437;BME280;62868;52.360;30.424;2023-03-19T00:34:08;1036.5;;;1;43.1
74437;BME280;62868;52.360;30.424;2023-03-19T00:39:20;1036.4;;;0.9;43.3
74437;BME280;62868;52.360;30.424;2023-03-19T00:43:44;1036.4;;;0.9;43.4
74437;BME280;62868;52.360;30.424;2023-03-19T00:49:08;1036.4;;;0.8;43.6
74437;BME280;62868;52.360;30.424;2023-03-19T00:54:09;1036.3;;;0.8;43.8
74437;BME280;62868;52.360;30.424;2023-03-19T00:59:04;1036.3;;;0.7;43.9
74437;BME280;62868;52.360;30.424;2023-03-19T01:03:38;1036.3;;;0.7;44.1
74437;BME280;62868;52.360;30.424;2023-03-19T01:09:04;1036.3;;;0.7;44.2
74437;BME280;62868;52.360;30.424;2023-03-19T01:14:20;1036.3;;;0.7;44.3
74437;BME280;62868;52.360;30.424;2023-03-19T01:19:22;1036.3;;;0.6;44.4
74437;BME280;62868;52.360;30.424;2023-03-19T01:23:32;1036.2;;;0.6;44.6
74437;BME280;62868;52.360;30.424;2023-03-19T01:29:22;1036.3;;;0.6;44.6
74437;BME280;62868;52.360;30.424;2023-03-19T01:34:08;1036.2;;;0.5;44.7
74437;BME280;62868;52.360;30.424;2023-03-19T01:38:32;1036.2;;;0.5;44.9
74437;BME280;62868;52.360;30.424;2023-03-19T01:43:32;1036.2;;;0.5;44.9
74437;BME280;62868;52.360;30.424;2023-03-19T01:49:22;1036.3;;;0.5;45
74437;BME280;62868;52.360;30.424;2023-03-19T01:53:38;1036.2;;;0.5;45
74437;BME280;62868;52.360;30.424;2023-03-19T01:58:34;1036.2;;;0.5;45.1
74437;BME280;62868;52.360;30.424;2023-03-19T02:04:22;1036.2;;;0.5;45.2
74437;BME280;62868;52.360;30.424;2023-03-19T02:08:38;1036.2;;;0.5;45.4
74437;BME280;62868;52.360;30.424;2023-03-19T02:13:48;1036.3;;;0.4;45.5
74437;BME280;62868;52.360;30.424;2023-03-19T02:18:32;1036.3;;;0.4;45.6
74437;BME280;62868;52.360;30.424;2023-03-19T02:24:05;1036.3;;;0.4;45.7
74437;BME280;62868;52.360;30.424;2023-03-19T02:29:08;1036.4;;;0.4;45.8
74437;BME280;62868;52.360;30.424;2023-03-19T02:33:32;1036.3;;;0.4;45.9
74437;BME280;62868;52.360;30.424;2023-03-19T02:38:50;1036.3;;;0.3;45.9
74437;BME280;62868;52.360;30.424;2023-03-19T02:44:06;1036.3;;;0.3;46
74437;BME280;62868;52.360;30.424;2023-03-19T02:49:22;1036.3;;;0.2;46.1
74437;BME280;62868;52.360;30.424;2023-03-19T02:53:50;1036.3;;;0.2;46.2
74437;BME280;62868;52.360;30.424;2023-03-19T02:58:48;1036.3;;;0.2;46.3
74437;BME280;62868;52.360;30.424;2023-03-19T03:03:38;1036.3;;;0.2;46.4
74437;BME280;62868;52.360;30.424;2023-03-19T03:09:20;1036.3;;;0.2;46.5
74437;BME280;62868;52.360;30.424;2023-03-19T03:13:48;1036.3;;;0.1;46.6
74437;BME280;62868;52.360;30.424;2023-03-19T03:18:38;1036.3;;;0.1;46.7
74437;BME280;62868;52.360;30.424;2023-03-19T03:24:20;1036.3;;;0.1;46.7
74437;BME280;62868;52.360;30.424;2023-03-19T03:28:50;1036.3;;;0;46.9
74437;BME280;62868;52.360;30.424;2023-03-19T03:33:38;1036.3;;;0;47
74437;BME280;62868;52.360;30.424;2023-03-19T03:39:08;1036.4;;;0;47.1
74437;BME280;62868;52.360;30.424;2023-03-19T03:44:22;1036.4;;;-0.1;47.2
74437;BME280;62868;52.360;30.424;2023-03-19T03:48:32;1036.4;;;-0.1;47.3
74437;BME280;62868;52.360;30.424;2023-03-19T03:54:08;1036.4;;;-0.1;47.4
74437;BME280;62868;52.360;30.424;2023-03-19T03:59:08;1036.4;;;0;47.4
74437;BME280;62868;52.360;30.424;2023-03-19T04:04:02;1036.4;;;-0.1;47.5
74437;BME280;62868;52.360;30.424;2023-03-19T04:08:38;1036.4;;;-0.1;47.6
74437;BME280;62868;52.360;30.424;2023-03-19T04:14:04;1036.4;;;-0.1;47.7
74437;BME280;62868;52.360;30.424;2023-03-19T04:19:22;1036.4;;;-0.1;47.8
74437;BME280;62868;52.360;30.424;2023-03-19T04:24:22;1036.3;;;0;47.8
74437;BME280;62868;52.360;30.424;2023-03-19T04:28:32;1036.2;;;0;47.9
74437;BME280;62868;52.360;30.424;2023-03-19T04:34:20;1036.2;;;0.1;47.9
74437;BME280;62868;52.360;30.424;2023-03-19T04:39:08;1036.2;;;0.3;47.9
74437;BME280;62868;52.360;30.424;2023-03-19T04:43:50;1036.2;;;0.6;47.9
74437;BME280;62868;52.360;30.424;2023-03-19T04:48:42;1036.2;;;0.9;47.9
74437;BME280;62868;52.360;30.424;2023-03-19T04:54:22;1036.2;;;1.2;47.9
74437;BME280;62868;52.360;30.424;2023-03-19T04:58:52;1036.2;;;1.5;47.8
74437;BME280;62868;52.360;30.424;2023-03-19T05:03:34;1036.2;;;1.9;47.7
74437;BME280;62868;52.360;30.424;2023-03-19T05:09:22;1036.2;;;2.2;47.5
74437;BME280;62868;52.360;30.424;2023-03-19T05:13:32;1036.1;;;2.4;47.4
74437;BME280;62868;52.360;30.424;2023-03-19T05:18:38;1036;;;2.7;47.2
74437;BME280;62868;52.360;30.424;2023-03-19T05:23:50;1036;;;3.1;46.9
74437;BME280;62868;52.360;30.424;2023-03-19T05:28:44;1036;;;3.4;46.8
74437;BME280;62868;52.360;30.424;2023-03-19T05:34:08;1035.9;;;3.7;46.6
74437;BME280;62868;52.360;30.424;2023-03-19T05:38:32;1035.9;;;3.9;46.5
74437;BME280;62868;52.360;30.424;2023-03-19T05:43:48;1035.9;;;4.3;46.3
74437;BME280;62868;52.360;30.424;2023-03-19T05:49:08;1035.9;;;4.6;46.1
74437;BME280;62868;52.360;30.424;2023-03-19T05:54:22;1035.8;;;5;45.9
74437;BME280;62868;52.360;30.424;2023-03-19T05:59:06;1035.8;;;5.4;45.7
74437;BME280;62868;52.360;30.424;2023-03-19T06:03:38;1035.8;;;5.6;45.5
74437;BME280;62868;52.360;30.424;2023-03-19T06:08:38;1035.8;;;5.7;45.4
74437;BME280;62868;52.360;30.424;2023-03-19T06:14:22;1035.9;;;5.9;45.1
74437;BME280;62868;52.360;30.424;2023-03-19T06:18:54;1035.8;;;6.3;44.9
74437;BME280;62868;52.360;30.424;2023-03-19T06:24:02;1035.8;;;6.4;44.8
74437;BME280;62868;52.360;30.424;2023-03-19T06:29:18;1035.8;;;6.5;44.7
74437;BME280;62868;52.360;30.424;2023-03-19T06:33:50;1035.8;;;7;44.4
74437;BME280;62868;52.360;30.424;2023-03-19T06:38:38;1035.8;;;7;44.4
74437;BME280;62868;52.360;30.424;2023-03-19T06:43:32;1035.8;;;7.4;44.1
74437;BME280;62868;52.360;30.424;2023-03-19T06:49:22;1035.7;;;7.6;43.9
74437;BME280;62868;52.360;30.424;2023-03-19T06:53:38;1035.7;;;7.6;43.9
74437;BME280;62868;52.360;30.424;2023-03-19T06:59:22;1035.7;;;7.7;43.8
74437;BME280;62868;52.360;30.424;2023-03-19T07:04:22;1035.7;;;8;43.5
74437;BME280;62868;52.360;30.424;2023-03-19T07:08:38;1035.6;;;8;43.4
74437;BME280;62868;52.360;30.424;2023-03-19T07:13:54;1035.7;;;8.2;43.3
74437;BME280;62868;52.360;30.424;2023-03-19T07:18:52;1035.6;;;8.3;43.2
74437;BME280;62868;52.360;30.424;2023-03-19T07:24:08;1035.6;;;8.8;42.9
74437;BME280;62868;52.360;30.424;2023-03-19T07:29:08;1035.6;;;9;42.7
74437;BME280;62868;52.360;30.424;2023-03-19T07:33:50;1035.6;;;9.1;42.6
74437;BME280;62868;52.360;30.424;2023-03-19T07:39:22;1035.6;;;9.2;42.5
74437;BME280;62868;52.360;30.424;2023-03-19T07:44:08;1035.7;;;9.6;42.2
74437;BME280;62868;52.360;30.424;2023-03-19T07:48:32;1035.6;;;9.9;42
74437;BME280;62868;52.360;30.424;2023-03-19T07:53:48;1035.6;;;10;41.9
74437;BME280;62868;52.360;30.424;2023-03-19T07:59:22;1035.6;;;10.3;41.8
74437;BME280;62868;52.360;30.424;2023-03-19T08:03:32;1035.5;;;10.2;41.6
74437;BME280;62868;52.360;30.424;2023-03-19T08:09:04;1035.5;;;10.1;41.6
74437;BME280;62868;52.360;30.424;2023-03-19T08:14:22;1035.5;;;10.2;41.5
74437;BME280;62868;52.360;30.424;2023-03-19T08:18:48;1035.4;;;10.2;41.3
74437;BME280;62868;52.360;30.424;2023-03-19T08:24:08;1035.4;;;10.5;41.1
74437;BME280;62868;52.360;30.424;2023-03-19T08:29:08;1035.3;;;10.8;40.9
74437;BME280;62868;52.360;30.424;2023-03-19T08:33:42;1035.3;;;11;40.8
74437;BME280;62868;52.360;30.424;2023-03-19T08:39:08;1035.3;;;11.2;40.7
74437;BME280;62868;52.360;30.424;2023-03-19T08:43:50;1035.2;;;11.3;40.6
74437;BME280;62868;52.360;30.424;2023-03-19T08:48:32;1035.2;;;11.3;40.6
74437;BME280;62868;52.360;30.424;2023-03-19T08:54:08;1035.1;;;11.6;40.4
74437;BME280;62868;52.360;30.424;2023-03-19T08:59:22;1035;;;11.8;40.3
74437;BME280;62868;52.360;30.424;2023-03-19T09:04:08;1035;;;11.9;40.2
74437;BME280;62868;52.360;30.424;2023-03-19T09:08:54;1035;;;12.2;40
74437;BME280;62868;52.360;30.424;2023-03-19T09:13:32;1035;;;12.7;39.7
74437;BME280;62868;52.360;30.424;2023-03-19T09:19:22;1034.9;;;12.9;39.5
74437;BME280;62868;52.360;30.424;2023-03-19T09:23:48;1034.9;;;12.9;39.4
74437;BME280;62868;52.360;30.424;2023-03-19T09:28:32;1034.8;;;13;39.3
74437;BME280;62868;52.360;30.424;2023-03-19T09:34:22;1034.8;;;12.8;39.1
74437;BME280;62868;52.360;30.424;2023-03-19T09:39:08;1034.7;;;12.6;39
74437;BME280;62868;52.360;30.424;2023-03-19T09:43:55;1034.6;;;12.8;38.9
74437;BME280;62868;52.360;30.424;2023-03-19T09:49:21;1034.5;;;13.1;38.6
74437;BME280;62868;52.360;30.424;2023-03-19T09:54:07;1034.5;;;13.3;38.3
74437;BME280;62868;52.360;30.424;2023-03-19T09:58:38;1034.5;;;13.7;38
74437;BME280;62868;52.360;30.424;2023-03-19T10:04:30;1034.5;;;13.6;37.8
74437;BME280;62868;52.360;30.424;2023-03-19T10:09:25;1034.4;;;13.8;37.4
74437;BME280;62868;52.360;30.424;2023-03-19T10:13:37;1034.3;;;14;37.2
74437;BME280;62868;52.360;30.424;2023-03-19T10:18:56;1034.3;;;13.8;37.2
74437;BME280;62868;52.360;30.424;2023-03-19T10:24:05;1034.2;;;13.9;36.9
74437;BME280;62868;52.360;30.424;2023-03-19T10:29:07;1034.2;;;14;36.7
74437;BME280;62868;52.360;30.424;2023-03-19T10:34:40;1034.1;;;14.2;36.4
74437;BME280;62868;52.360;30.424;2023-03-19T10:38:32;1034.1;;;14.1;36.2
74437;BME280;62868;52.360;30.424;2023-03-19T10:44:24;1034;;;14;36.2
74437;BME280;62868;52.360;30.424;2023-03-19T10:49:10;1033.9;;;14.3;36
74437;BME280;62868;52.360;30.424;2023-03-19T10:53:32;1033.9;;;14.3;35.9
74437;BME280;62868;52.360;30.424;2023-03-19T10:58:58;1033.8;;;14.2;35.7
74437;BME280;62868;52.360;30.424;2023-03-19T11:04:22;1033.7;;;14.3;35.6
74437;BME280;62868;52.360;30.424;2023-03-19T11:08:33;1033.7;;;14.3;35.4
74437;BME280;62868;52.360;30.424;2023-03-19T11:13:52;1033.7;;;14.4;35.4
74437;BME280;62868;52.360;30.424;2023-03-19T11:18:35;1033.7;;;14.7;35.1
74437;BME280;62868;52.360;30.424;2023-03-19T11:24:08;1033.6;;;15;35
74437;BME280;62868;52.360;30.424;2023-03-19T11:29:07;1033.5;;;15;34.9
74437;BME280;62868;52.360;30.424;2023-03-19T11:33:36;1033.4;;;14.9;34.7
74437;BME280;62868;52.360;30.424;2023-03-19T11:38:40;1033.4;;;14.9;34.6
74437;BME280;62868;52.360;30.424;2023-03-19T11:44:09;1033.4;;;14.9;34.5
74437;BME280;62868;52.360;30.424;2023-03-19T11:48:57;1033.3;;;14.8;34.5
74437;BME280;62868;52.360;30.424;2023-03-19T11:54:05;1033.2;;;15.1;34.4
74437;BME280;62868;52.360;30.424;2023-03-19T11:59:12;1033.2;;;15.3;34.1
74437;BME280;62868;52.360;30.424;2023-03-19T12:04:24;1033.2;;;15.2;34
74437;BME280;62868;52.360;30.424;2023-03-19T12:08:32;1033.2;;;15;33.9
74437;BME280;62868;52.360;30.424;2023-03-19T12:13:58;1033.2;;;14.9;33.9
74437;BME280;62868;52.360;30.424;2023-03-19T12:19:13;1033.2;;;14.7;33.8
74437;BME280;62868;52.360;30.424;2023-03-19T12:24:24;1033.1;;;14.5;33.7
74437;BME280;62868;52.360;30.424;2023-03-19T12:28:56;1033.1;;;14.3;33.5
74437;BME280;62868;52.360;30.424;2023-03-19T12:33:35;1033;;;14.2;33.5
74437;BME280;62868;52.360;30.424;2023-03-19T12:39:23;1032.9;;;14.2;33.5
74437;BME280;62868;52.360;30.424;2023-03-19T12:43:33;1032.9;;;14.3;33.4
74437;BME280;62868;52.360;30.424;2023-03-19T12:48:39;1032.8;;;14.2;33.5
74437;BME280;62868;52.360;30.424;2023-03-19T12:53:34;1032.8;;;14.2;33.5
74437;BME280;62868;52.360;30.424;2023-03-19T12:59:23;1032.8;;;14.2;33.5
74437;BME280;62868;52.360;30.424;2023-03-19T13:03:40;1032.7;;;14.3;33.5
74437;BME280;62868;52.360;30.424;2023-03-19T13:09:24;1032.7;;;14.2;33.6
74437;BME280;62868;52.360;30.424;2023-03-19T13:14:24;1032.6;;;14.1;33.6
74437;BME280;62868;52.360;30.424;2023-03-19T13:18:39;1032.5;;;14.2;33.5
74437;BME280;62868;52.360;30.424;2023-03-19T13:34:16;1032.5;;;14.2;33.5
74437;BME280;62868;52.360;30.424;2023-03-19T13:39:10;1032.3;;;12.1;33.4
74437;BME280;62868;52.360;30.424;2023-03-19T13:43:40;1032.2;;;12.3;34.1
74437;BME280;62868;52.360;30.424;2023-03-19T13:49:23;1032.2;;;12.6;34.4
74437;BME280;62868;52.360;30.424;2023-03-19T13:54:14;1032.1;;;12.8;34.3
74437;BME280;62868;52.360;30.424;2023-03-19T13:58:43;1032;;;13;34.3
74437;BME280;62868;52.360;30.424;2023-03-19T14:03:32;1032;;;13.1;34.3
74437;BME280;62868;52.360;30.424;2023-03-19T14:09:31;1032;;;13.1;34.3
74437;BME280;62868;52.360;30.424;2023-03-19T14:13:39;1031.9;;;13.1;34.3
74437;BME280;62868;52.360;30.424;2023-03-19T14:19:08;1031.9;;;13.1;34.3
74437;BME280;62868;52.360;30.424;2023-03-19T14:24:26;1031.9;;;13.1;34.2
74437;BME280;62868;52.360;30.424;2023-03-19T14:28:34;1031.9;;;13;34.2
74437;BME280;62868;52.360;30.424;2023-03-19T14:33:54;1031.8;;;12.8;34.2
74437;BME280;62868;52.360;30.424;2023-03-19T14:38:50;1031.8;;;12.6;34.2
74437;BME280;62868;52.360;30.424;2023-03-19T14:43:44;1031.8;;;12.5;34.3
74437;BME280;62868;52.360;30.424;2023-03-19T14:49:16;1031.7;;;12.4;34.3
74437;BME280;62868;52.360;30.424;2023-03-19T14:53:40;1031.7;;;12.1;34.3
74437;BME280;62868;52.360;30.424;2023-03-19T14:58:51;1031.6;;;12;34.4
74437;BME280;62868;52.360;30.424;2023-03-19T15:04:03;1031.6;;;11.8;34.5
74437;BME280;62868;52.360;30.424;2023-03-19T15:09:09;1031.6;;;11.6;34.6
74437;BME280;62868;52.360;30.424;2023-03-19T15:14:27;1031.6;;;11.4;34.8
74437;BME280;62868;52.360;30.424;2023-03-19T15:18:48;1031.6;;;11.2;34.9
74437;BME280;62868;52.360;30.424;2023-03-19T15:24:04;1031.6;;;11.1;35
74437;BME280;62868;52.360;30.424;2023-03-19T15:29:29;1031.6;;;11;35.1
74437;BME280;62868;52.360;30.424;2023-03-19T15:34:23;1031.6;;;11;35.1
74437;BME280;62868;52.360;30.424;2023-03-19T15:38:51;1031.6;;;11;35.2
74437;BME280;62868;52.360;30.424;2023-03-19T15:44:24;1031.6;;;10.9;35.3
74437;BME280;62868;52.360;30.424;2023-03-19T15:49:09;1031.6;;;10.9;35.4
74437;BME280;62868;52.360;30.424;2023-03-19T15:53:38;1031.6;;;10.8;35.4
74437;BME280;62868;52.360;30.424;2023-03-19T15:58:51;1031.7;;;10.7;35.5
74437;BME280;62868;52.360;30.424;2023-03-19T16:04:22;1031.7;;;10.6;35.7
74437;BME280;62868;52.360;30.424;2023-03-19T16:08:44;1031.7;;;10.5;35.9
74437;BME280;62868;52.360;30.424;2023-03-19T16:14:08;1031.7;;;10.3;36.1
74437;BME280;62868;52.360;30.424;2023-03-19T16:19:26;1031.6;;;10.1;36.3
74437;BME280;62868;52.360;30.424;2023-03-19T16:23:50;1031.6;;;9.9;36.4
74437;BME280;62868;52.360;30.424;2023-03-19T16:28:58;1031.6;;;9.7;36.6
74437;BME280;62868;52.360;30.424;2023-03-19T16:33:44;1031.6;;;9.6;36.7
74437;BME280;62868;52.360;30.424;2023-03-19T16:38:43;1031.6;;;9.5;36.9
74437;BME280;62868;52.360;30.424;2023-03-19T16:44:11;1031.6;;;9.3;37
74437;BME280;62868;52.360;30.424;2023-03-19T16:48:50;1031.6;;;9.1;37.5
74437;BME280;62868;52.360;30.424;2023-03-19T16:54:02;1031.6;;;8.9;37.8
74437;BME280;62868;52.360;30.424;2023-03-19T16:59:09;1031.6;;;8.7;38
74437;BME280;62868;52.360;30.424;2023-03-19T17:04:24;1031.6;;;8.5;38.2
74437;BME280;62868;52.360;30.424;2023-03-19T17:08:40;1031.6;;;8.3;38.5
74437;BME280;62868;52.360;30.424;2023-03-19T17:13:33;1031.6;;;8.1;38.7
74437;BME280;62868;52.360;30.424;2023-03-19T17:18:40;1031.6;;;7.9;39
74437;BME280;62868;52.360;30.424;2023-03-19T17:24:25;1031.6;;;7.7;39.2
74437;BME280;62868;52.360;30.424;2023-03-19T17:29:12;1031.6;;;7.7;39.4
74437;BME280;62868;52.360;30.424;2023-03-19T17:33:50;1031.6;;;7.5;39.7
74437;BME280;62868;52.360;30.424;2023-03-19T17:39:26;1031.6;;;7.4;39.9
74437;BME280;62868;52.360;30.424;2023-03-19T17:43:54;1031.6;;;7.2;40.2
74437;BME280;62868;52.360;30.424;2023-03-19T17:49:27;1031.6;;;7.1;40.4
74437;BME280;62868;52.360;30.424;2023-03-19T17:54:26;1031.6;;;7;40.6
74437;BME280;62868;52.360;30.424;2023-03-19T17:59:26;1031.6;;;6.9;40.7
74437;BME280;62868;52.360;30.424;2023-03-19T18:03:32;1031.6;;;6.8;40.8
74437;BME280;62868;52.360;30.424;2023-03-19T18:09:26;1031.7;;;6.7;40.9
74437;BME280;62868;52.360;30.424;2023-03-19T18:14:26;1031.7;;;6.6;41
74437;BME280;62868;52.360;30.424;2023-03-19T18:18:48;1031.8;;;6.6;41
74437;BME280;62868;52.360;30.424;2023-03-19T18:23:56;1031.8;;;6.5;41.2
74437;BME280;62868;52.360;30.424;2023-03-19T18:28:56;1031.7;;;6.5;41.3
74437;BME280;62868;52.360;30.424;2023-03-19T18:34:26;1031.7;;;6.5;41.3
74437;BME280;62868;52.360;30.424;2023-03-19T18:39:13;1031.7;;;6.4;41.5
74437;BME280;62868;52.360;30.424;2023-03-19T18:43:46;1031.6;;;6.3;41.8
74437;BME280;62868;52.360;30.424;2023-03-19T18:49:26;1031.7;;;6.1;42.1
74437;BME280;62868;52.360;30.424;2023-03-19T18:53:58;1031.6;;;6;42.3
74437;BME280;62868;52.360;30.424;2023-03-19T18:59:15;1031.6;;;5.9;42.6
74437;BME280;62868;52.360;30.424;2023-03-19T19:03:45;1031.6;;;5.8;42.7
74437;BME280;62868;52.360;30.424;2023-03-19T19:09:26;1031.7;;;5.6;43
74437;BME280;62868;52.360;30.424;2023-03-19T19:13:40;1031.7;;;5.5;43.2
74437;BME280;62868;52.360;30.424;2023-03-19T19:19:13;1031.7;;;5.4;43.3
74437;BME280;62868;52.360;30.424;2023-03-19T19:24:08;1031.7;;;5.3;43.5
74437;BME280;62868;52.360;30.424;2023-03-19T19:28:57;1031.7;;;5.2;43.7
74437;BME280;62868;52.360;30.424;2023-03-19T19:34:26;1031.6;;;5;43.9
74437;BME280;62868;52.360;30.424;2023-03-19T19:38:54;1031.6;;;4.8;44.1
74437;BME280;62868;52.360;30.424;2023-03-19T19:43:52;1031.6;;;4.7;44.3
74437;BME280;62868;52.360;30.424;2023-03-19T19:49:26;1031.6;;;4.6;44.4
74437;BME280;62868;52.360;30.424;2023-03-19T19:54:26;1031.6;;;4.5;44.6
74437;BME280;62868;52.360;30.424;2023-03-19T19:58:40;1031.6;;;4.5;44.8
74437;BME280;62868;52.360;30.424;2023-03-19T20:04:11;1031.6;;;4.4;44.9
74437;BME280;62868;52.360;30.424;2023-03-19T20:09:26;1031.7;;;4.4;45.1
74437;BME280;62868;52.360;30.424;2023-03-19T20:13:52;1031.7;;;4.3;45.3
74437;BME280;62868;52.360;30.424;2023-03-19T20:18:32;1031.6;;;4.1;45.5
74437;BME280;62868;52.360;30.424;2023-03-19T20:23:32;1031.7;;;4.1;45.6
74437;BME280;62868;52.360;30.424;2023-03-19T20:29:26;1031.7;;;4;45.8
74437;BME280;62868;52.360;30.424;2023-03-19T20:33:56;1031.7;;;3.9;46
74437;BME280;62868;52.360;30.424;2023-03-19T20:38:32;1031.7;;;3.9;46.2
74437;BME280;62868;52.360;30.424;2023-03-19T20:44:24;1031.6;;;3.8;46.4
74437;BME280;62868;52.360;30.424;2023-03-19T20:49:12;1031.6;;;3.8;46.4
74437;BME280;62868;52.360;30.424;2023-03-19T20:53:40;1031.5;;;3.6;46.6
74437;BME280;62868;52.360;30.424;2023-03-19T20:58:52;1031.5;;;3.6;46.6
74437;BME280;62868;52.360;30.424;2023-03-19T21:04:15;1031.5;;;3.6;46.6
74437;BME280;62868;52.360;30.424;2023-03-19T21:08:41;1031.5;;;3.6;46.7
74437;BME280;62868;52.360;30.424;2023-03-19T21:14:26;1031.5;;;3.6;46.7
74437;BME280;62868;52.360;30.424;2023-03-19T21:19:26;1031.5;;;3.6;46.8
74437;BME280;62868;52.360;30.424;2023-03-19T21:23:33;1031.6;;;3.5;46.9
74437;BME280;62868;52.360;30.424;2023-03-19T21:28:40;1031.5;;;3.5;47.1
74437;BME280;62868;52.360;30.424;2023-03-19T21:34:09;1031.6;;;3.5;47
74437;BME280;62868;52.360;30.424;2023-03-19T21:39:08;1031.6;;;3.5;47.2
74437;BME280;62868;52.360;30.424;2023-03-19T21:44:13;1031.6;;;3.5;47.3
74437;BME280;62868;52.360;30.424;2023-03-19T21:48:40;1031.6;;;3.5;47.4
74437;BME280;62868;52.360;30.424;2023-03-19T21:54:10;1031.6;;;3.4;47.6
74437;BME280;62868;52.360;30.424;2023-03-19T21:58:50;1031.6;;;3.3;47.7
74437;BME280;62868;52.360;30.424;2023-03-19T22:03:55;1031.6;;;3.3;47.8
74437;BME280;62868;52.360;30.424;2023-03-19T22:08:40;1031.6;;;3.3;47.8
74437;BME280;62868;52.360;30.424;2023-03-19T22:14:26;1031.5;;;3.3;47.9
74437;BME280;62868;52.360;30.424;2023-03-19T22:18:32;1031.5;;;3.3;47.8
74437;BME280;62868;52.360;30.424;2023-03-19T22:24:08;1031.5;;;3.3;47.8
74437;BME280;62868;52.360;30.424;2023-03-19T22:29:10;1031.5;;;3.3;47.8
74437;BME280;62868;52.360;30.424;2023-03-19T22:33:40;1031.5;;;3.3;47.8
74437;BME280;62868;52.360;30.424;2023-03-19T22:39:08;1031.5;;;3.3;47.9
74437;BME280;62868;52.360;30.424;2023-03-19T22:43:55;1031.5;;;3.3;47.9
74437;BME280;62868;52.360;30.424;2023-03-19T22:48:41;1031.5;;;3.3;47.9
74437;BME280;62868;52.360;30.424;2023-03-19T22:54:12;1031.5;;;3.3;48
74437;BME280;62868;52.360;30.424;2023-03-19T22:59:24;1031.5;;;3.3;48
74437;BME280;62868;52.360;30.424;2023-03-19T23:03:32;1031.5;;;3.3;48
74437;BME280;62868;52.360;30.424;2023-03-19T23:09:10;1031.5;;;3.3;48
74437;BME280;62868;52.360;30.424;2023-03-19T23:14:12;1031.4;;;3.2;48.1
74437;BME280;62868;52.360;30.424;2023-03-19T23:19:08;1031.4;;;3.2;48.3
74437;BME280;62868;52.360;30.424;2023-03-19T23:23:32;1031.4;;;3.1;48.5
74437;BME280;62868;52.360;30.424;2023-03-19T23:29:25;1031.4;;;2.9;48.7
74437;BME280;62868;52.360;30.424;2023-03-19T23:34:25;1031.4;;;2.8;48.8
74437;BME280;62868;52.360;30.424;2023-03-19T23:39:12;1031.3;;;2.6;49
74437;BME280;62868;52.360;30.424;2023-03-19T23:43:40;1031.3;;;2.5;49
74437;BME280;62868;52.360;30.424;2023-03-19T23:49:26;1031.2;;;2.5;49.2
74437;BME280;62868;52.360;30.424;2023-03-19T23:54:16;1031.1;;;2.4;49.3
74437;BME280;62868;52.360;30.424;2023-03-19T23:58:40;1031.1;;;2.3;49.5
